ORBI/SDA METAR and TAF weather

Enter ICAO airport designator
Station Type Date Time Source
ORBI METAR 2023/02/05 13:00 UTC NOAA

ORBI 051300Z 16008KT 120V220 9999 FEW035 19/05 Q1013


Station Type Date Time Source
ORBI Decoded METAR 2023/02/05 13:00 UTC NOAA

Station name not available
Feb 05, 2023 - 08:00 AM EST / 2023.02.05 1300 UTC
Wind: from the SSE (160 degrees) at 9 MPH (8 KT) (direction variable):0
Visibility: greater than 7 mile(s):0
Sky conditions: mostly clear
Temperature: 66 F (19 C)
Dew Point: 41 F (5 C)
Relative Humidity: 39%
Pressure (altimeter): 29.91 in. Hg (1013 hPa)
ob: ORBI 051300Z 16008KT 120V220 9999 FEW035 19/05 Q1013
cycle: 13

Station Type Date Time Source
ORBI TAF 2023/02/05 12:39 UTC NOAA

TAF TAF ORBI 051100Z 0512/0612 16010KT CAVOK
BECMG 0608/0610 16020KT 5000 BLDU

Example: see airport list